createdAt,value
2019-02-20T11:30:02.716Z,97332.54
2019-02-20T11:30:42.115Z,97333.29
2019-02-20T11:31:19.416Z,97331.04
2019-02-20T11:31:56.740Z,97328.36
2019-02-20T11:32:34.037Z,97333.83
2019-02-20T11:33:11.363Z,97326.89
2019-02-20T11:33:48.661Z,97328.47
2019-02-20T11:34:27.548Z,97327.55
2019-02-20T11:35:06.178Z,97331.73
2019-02-20T11:35:46.997Z,97327.26
2019-02-20T11:36:24.339Z,97328.47
2019-02-20T11:37:02.852Z,97326.34
2019-02-20T12:53:45.630Z,97302.23
2019-02-20T12:54:22.944Z,97303.16
2019-02-20T12:55:13.580Z,97302.39
2019-02-20T12:59:36.836Z,97298.96
2019-02-20T13:00:15.758Z,97300.27
2019-02-20T13:02:30.041Z,97303.98
2019-02-20T13:03:23.977Z,97305.47
2019-02-20T13:04:02.157Z,97302.59
2019-02-20T13:06:02.184Z,97305.97
2019-02-20T13:06:39.552Z,97306.48
2019-02-20T13:07:17.705Z,97305.64
2019-02-20T13:09:28.814Z,97313.70
2019-02-20T13:10:18.666Z,97306.20
2019-02-20T13:10:56.656Z,97304.34
2019-02-20T13:11:46.217Z,97313.98
2019-02-20T13:15:17.317Z,97312.59
2019-02-20T13:15:54.704Z,97318.48
2019-02-20T13:16:35.070Z,97320.80
2019-02-20T13:17:12.385Z,97317.00
2019-02-20T13:18:27.817Z,97315.99
2019-02-20T13:20:56.797Z,97319.76
2019-02-20T13:21:34.109Z,97314.86
2019-02-20T13:22:11.408Z,97308.88
2019-02-20T13:22:48.821Z,97310.70
2019-02-20T13:23:26.099Z,97312.94
2019-02-20T13:24:03.472Z,97315.12
2019-02-20T13:24:40.770Z,97313.09
2019-02-20T13:25:18.079Z,97317.17
2019-02-20T13:25:55.355Z,97312.23
2019-02-20T13:26:33.678Z,97307.69
2019-02-20T13:27:11.005Z,97311.39
2019-02-20T13:27:48.330Z,97304.34
2019-02-20T13:28:25.653Z,97311.92
2019-02-20T13:29:02.981Z,97309.50
2019-02-20T13:29:40.352Z,97312.47
2019-02-20T13:30:17.707Z,97312.66
2019-02-20T13:30:55.005Z,97302.55
2019-02-20T13:31:32.327Z,97307.98
2019-02-20T13:32:09.626Z,97306.86
2019-02-20T13:32:47.150Z,97306.21
2019-02-20T13:33:24.460Z,97309.08
2019-02-20T13:34:01.847Z,97304.13
2019-02-20T13:34:39.158Z,97302.17
2019-02-20T13:35:16.483Z,97307.55
2019-02-20T13:35:53.957Z,97303.56
2019-02-20T13:36:31.288Z,97309.36
2019-02-20T13:37:08.872Z,97309.27
2019-02-20T13:37:46.162Z,97310.00
2019-02-20T13:38:23.470Z,97306.02
2019-02-20T13:39:00.781Z,97301.92
2019-02-20T13:39:39.720Z,97309.62
2019-02-20T13:40:17.025Z,97308.69
2019-02-20T13:40:54.331Z,97305.97
2019-02-20T13:41:31.633Z,97308.47
2019-02-20T13:42:09.125Z,97308.73
2019-02-20T13:42:46.811Z,97302.14
2019-02-20T13:43:24.092Z,97305.11
2019-02-20T13:44:01.406Z,97298.52
2019-02-20T13:44:38.715Z,97301.12
2019-02-20T13:45:16.144Z,97304.08
2019-02-20T13:45:53.426Z,97305.28
2019-02-20T13:46:30.751Z,97301.72
2019-02-20T13:47:09.039Z,97294.77
2019-02-20T13:47:46.364Z,97296.43
2019-02-20T13:48:23.689Z,97296.80
2019-02-20T13:49:01.004Z,97298.09
2019-02-20T13:49:39.858Z,97300.63
2019-02-20T13:50:20.366Z,97301.09
2019-02-20T13:50:57.753Z,97295.06
2019-02-20T13:51:35.063Z,97303.30
2019-02-20T13:52:12.403Z,97294.66
2019-02-20T13:52:52.472Z,97300.27
2019-02-20T13:53:28.740Z,97297.66
2019-02-20T13:54:06.153Z,97295.06
2019-02-20T13:54:43.463Z,97296.27
2019-02-20T13:55:20.794Z,97303.23
2019-02-20T13:55:58.263Z,97298.87
2019-02-20T13:56:35.885Z,97295.44
2019-02-20T13:57:13.219Z,97296.27
2019-02-20T13:57:50.616Z,97294.03
2019-02-20T13:58:27.930Z,97295.34
2019-02-20T13:59:05.236Z,97299.60
2019-02-20T13:59:42.539Z,97297.00
2019-02-20T14:00:19.836Z,97300.44
2019-02-20T14:00:57.131Z,97297.84
2019-02-20T14:01:35.488Z,97297.00
2019-02-20T14:02:12.786Z,97300.06
2019-02-20T14:02:50.215Z,97293.94
2019-02-20T14:03:27.544Z,97297.84
2019-02-20T14:04:04.867Z,97298.67
2019-02-20T14:04:42.450Z,97302.00
2019-02-20T14:05:19.837Z,97303.67
2019-02-20T14:05:57.145Z,97303.67
2019-02-20T14:06:34.457Z,97301.44
2019-02-20T14:07:11.754Z,97303.44
2019-02-20T14:07:49.084Z,97299.91
2019-02-20T14:08:26.408Z,97299.45
2019-02-20T14:09:04.559Z,97298.52
2019-02-20T14:09:43.476Z,97296.38
2019-02-20T14:10:20.759Z,97303.61
2019-02-20T14:10:58.069Z,97294.88
2019-02-20T14:11:35.949Z,97297.75
2019-02-20T14:12:13.263Z,97296.45
2019-02-20T14:12:50.587Z,97304.62
2019-02-20T14:13:28.213Z,97292.45
2019-02-20T14:14:05.695Z,97302.85
2019-02-20T14:14:43.001Z,97297.28
2019-02-20T14:15:20.328Z,97296.82
2019-02-20T14:15:57.621Z,97302.39
2019-02-20T14:16:34.933Z,97296.36
2019-02-20T14:17:12.244Z,97298.95
2019-02-20T14:17:49.554Z,97291.62
2019-02-20T14:18:26.848Z,97297.19
2019-02-20T14:19:04.197Z,97298.95
2019-02-20T14:19:41.908Z,97300.72
2019-02-20T14:20:19.205Z,97297.66
2019-02-20T14:20:56.530Z,97293.02
2019-02-20T14:21:33.824Z,97298.59
2019-02-20T14:22:11.151Z,97296.92
2019-02-20T14:22:48.444Z,97299.52
2019-02-20T14:23:25.847Z,97302.48
2019-02-20T14:24:03.159Z,97301.28
2019-02-20T14:24:41.667Z,97296.55
2019-02-20T14:25:18.959Z,97298.78
2019-02-20T14:25:56.254Z,97299.62
2019-02-20T14:26:33.906Z,97292.75
2019-02-20T14:27:11.373Z,97296.75
2019-02-20T14:27:48.781Z,97295.45
2019-02-20T14:28:26.084Z,97289.78
2019-02-20T14:29:04.505Z,97294.05
2019-02-20T14:29:47.528Z,97294.15
2019-02-20T14:30:24.821Z,97292.38
2019-02-20T14:31:02.167Z,97291.28
2019-02-20T14:31:39.655Z,97297.41
2019-02-20T14:32:18.526Z,97295.28
2019-02-20T14:32:55.842Z,97288.08
2019-02-20T14:33:33.244Z,97289.48
2019-02-20T14:34:10.524Z,97294.30
2019-02-20T14:34:47.863Z,97291.34
2019-02-20T14:35:25.159Z,97292.27
2019-02-20T14:36:02.468Z,97290.61
2019-02-20T14:36:39.778Z,97295.80
2019-02-20T14:37:17.074Z,97292.84
2019-02-20T14:37:54.385Z,97295.06
2019-02-20T14:38:32.072Z,97292.53
2019-02-20T14:39:11.839Z,97297.36
2019-02-20T14:39:49.414Z,97297.03
2019-02-20T14:40:27.110Z,97296.66
2019-02-20T14:41:12.134Z,97298.16
2019-02-20T14:41:49.417Z,97296.02
2019-02-20T14:42:26.744Z,97298.34
2019-02-20T14:43:04.022Z,97295.84
2019-02-20T14:43:41.336Z,97295.37
2019-02-20T14:44:18.652Z,97296.31
2019-02-20T14:44:57.839Z,97296.67
2019-02-20T14:45:34.996Z,97297.14
2019-02-20T14:46:12.594Z,97296.31
2019-02-20T14:46:49.929Z,97301.88
2019-02-20T14:47:27.298Z,97297.52
2019-02-20T14:48:04.654Z,97291.39
2019-02-20T14:48:41.956Z,97294.81
2019-02-20T14:49:19.249Z,97296.95
2019-02-20T14:49:56.560Z,97298.71
2019-02-20T14:50:33.962Z,97298.25
2019-02-20T14:51:11.260Z,97296.48
2019-02-20T14:51:48.552Z,97296.02
2019-02-20T14:52:25.877Z,97294.25
2019-02-20T14:53:03.551Z,97299.36
2019-02-20T14:53:40.879Z,97297.22
2019-02-20T14:54:21.278Z,97295.83
2019-02-20T14:54:58.593Z,97295.83
2019-02-20T14:55:35.929Z,97298.42
2019-02-20T14:56:13.332Z,97296.66
2019-02-20T14:56:50.617Z,97297.49
2019-02-20T14:57:27.937Z,97299.95
2019-02-20T14:58:05.282Z,97303.86
2019-02-20T14:58:42.576Z,97299.50
2019-02-20T14:59:19.909Z,97297.27
2019-02-20T14:59:57.601Z,97291.23
2019-02-20T15:00:39.072Z,97295.13
2019-02-20T15:01:16.424Z,97295.50
2019-02-20T15:01:53.774Z,97298.56
2019-02-20T15:02:31.140Z,97287.70
2019-02-20T15:03:08.522Z,97294.20
2019-02-20T15:03:45.805Z,97284.58
2019-02-20T15:04:23.132Z,97287.55
2019-02-20T15:05:00.442Z,97286.14
2019-02-20T15:05:37.919Z,97284.75
2019-02-20T15:06:15.255Z,97290.31
2019-02-20T15:06:54.131Z,97286.31
2019-02-20T15:07:31.444Z,97282.78
2019-02-20T15:08:20.937Z,97283.12
2019-02-20T15:08:58.231Z,97282.19
2019-02-20T15:09:35.572Z,97285.72
2019-02-20T15:10:12.974Z,97281.82
2019-02-20T15:10:50.315Z,97285.62
2019-02-20T15:11:28.026Z,97284.69
2019-02-20T15:12:08.546Z,97283.29
2019-02-20T15:12:46.710Z,97285.69
2019-02-20T15:13:25.170Z,97286.06
2019-02-20T15:14:02.567Z,97289.02
2019-02-20T15:14:39.841Z,97291.39
2019-02-20T15:15:18.967Z,97284.09
2019-02-20T15:15:56.150Z,97280.53
2019-02-20T15:16:33.490Z,97283.86
2019-02-20T15:17:10.811Z,97285.53
2019-02-20T15:17:48.118Z,97283.30
2019-02-20T15:18:25.821Z,97282.73
2019-02-20T15:19:03.134Z,97283.56
2019-02-20T15:19:40.472Z,97280.86
2019-02-20T15:20:17.768Z,97284.30
2019-02-20T15:20:55.079Z,97278.16
2019-02-20T15:21:32.377Z,97278.06
2019-02-20T15:22:09.673Z,97278.90
2019-02-20T15:22:47.005Z,97277.09
2019-02-20T15:23:24.341Z,97283.12
2019-02-20T15:24:01.920Z,97281.36
2019-02-20T15:24:40.181Z,97281.73
2019-02-20T15:25:17.893Z,97281.36
2019-02-20T15:25:55.222Z,97273.20
2019-02-20T15:26:32.577Z,97281.00
2019-02-20T15:27:09.900Z,97278.06
2019-02-20T15:27:47.212Z,97273.80
2019-02-20T15:28:24.522Z,97280.66
2019-02-20T15:29:02.915Z,97276.77
2019-02-20T15:29:40.256Z,97279.36
2019-02-20T15:30:17.567Z,97271.56
2019-02-20T15:30:54.864Z,97276.30
2019-02-20T15:31:33.984Z,97275.46
2019-02-20T15:32:12.532Z,97271.90
2019-02-20T15:32:50.971Z,97270.73
2019-02-20T15:33:29.404Z,97276.77
2019-02-20T15:34:06.727Z,97268.59
2019-02-20T15:34:44.014Z,97270.37
2019-02-20T15:35:21.337Z,97272.96
2019-02-20T15:35:58.756Z,97275.93
2019-02-20T15:36:36.078Z,97277.70
2019-02-20T15:37:13.389Z,97272.50
2019-02-20T15:37:50.732Z,97276.50
2019-02-20T15:38:28.016Z,97276.96
2019-02-20T15:39:06.044Z,97276.59
2019-02-20T15:39:44.840Z,97279.56
2019-02-20T15:40:22.406Z,97277.53
2019-02-20T15:40:59.741Z,97277.16
2019-02-20T15:41:37.044Z,97279.77
2019-02-20T15:42:14.397Z,97278.09
2019-02-20T15:42:51.695Z,97275.97
2019-02-20T15:43:29.025Z,97277.73
2019-02-20T15:44:06.462Z,97276.53
2019-02-20T15:44:43.793Z,97276.06
2019-02-20T15:45:21.135Z,97274.03
2019-02-20T15:45:58.451Z,97270.13
2019-02-20T15:46:36.809Z,97271.20
2019-02-20T15:47:14.509Z,97273.89
2019-02-20T15:47:51.851Z,97268.80
2019-02-20T15:48:29.166Z,97271.03
2019-02-20T15:49:06.519Z,97269.83
2019-02-20T15:49:43.844Z,97268.16
2019-02-20T15:50:21.182Z,97271.23
2019-02-20T15:50:58.437Z,97271.80
2019-02-20T15:51:35.761Z,97279.48
2019-02-20T15:52:13.088Z,97272.26
2019-02-20T15:52:53.806Z,97274.49
2019-02-20T15:53:31.116Z,97279.69
2019-02-20T15:54:08.933Z,97278.52
2019-02-20T15:54:46.247Z,97272.13
2019-02-20T15:55:23.650Z,97272.13
2019-02-20T15:56:01.002Z,97273.05
2019-02-20T15:56:38.389Z,97279.55
2019-02-20T15:57:15.701Z,97273.52
2019-02-20T15:57:53.026Z,97273.98
2019-02-20T15:58:30.322Z,97271.39
2019-02-20T15:59:07.631Z,97273.16
2019-02-20T15:59:44.945Z,97271.39
2019-02-20T16:00:24.883Z,97275.66
2019-02-20T16:01:02.691Z,97274.81
2019-02-20T16:01:41.573Z,97273.52
2019-02-20T16:02:18.900Z,97279.08
2019-02-20T16:02:56.230Z,97271.39
2019-02-20T16:03:33.540Z,97272.13
2019-02-20T16:04:10.881Z,97274.63
2019-02-20T16:04:48.213Z,97278.52
2019-02-20T16:05:25.531Z,97272.39
2019-02-20T16:06:02.927Z,97270.59
2019-02-20T16:06:40.244Z,97275.69
2019-02-20T16:07:17.580Z,97275.22
2019-02-20T16:07:54.896Z,97273.09
2019-02-20T16:08:32.218Z,97272.16
2019-02-20T16:09:09.894Z,97274.39
2019-02-20T16:09:48.794Z,97273.09
2019-02-20T16:10:26.090Z,97279.22
2019-02-20T16:11:03.419Z,97277.45
2019-02-20T16:11:40.725Z,97274.86
2019-02-20T16:12:18.080Z,97273.56
2019-02-20T16:12:55.476Z,97278.39
2019-02-20T16:13:32.798Z,97274.49
2019-02-20T16:14:10.090Z,97278.39
2019-02-20T16:14:47.402Z,97281.48
2019-02-20T16:15:24.689Z,97276.29
2019-02-20T16:16:02.487Z,97280.28
2019-02-20T16:16:41.061Z,97283.81
2019-02-20T16:17:18.387Z,97281.22
2019-02-20T16:17:56.789Z,97277.42
2019-02-20T16:18:34.101Z,97283.08
2019-02-20T16:19:11.414Z,97280.11
2019-02-20T16:19:48.799Z,97279.28
2019-02-20T16:20:26.154Z,97283.18
2019-02-20T16:21:03.449Z,97285.77
2019-02-20T16:21:40.749Z,97290.97
2019-02-20T16:22:19.171Z,97287.08
2019-02-20T16:22:56.796Z,97282.34
2019-02-20T16:23:34.184Z,97279.37
2019-02-20T16:24:11.746Z,97284.11
2019-02-20T16:24:49.060Z,97284.11
2019-02-20T16:25:26.354Z,97281.41
2019-02-20T16:26:03.712Z,97285.31
2019-02-20T16:26:40.989Z,97282.34
2019-02-20T16:27:19.195Z,97285.77
2019-02-20T16:27:56.590Z,97280.11
2019-02-20T16:28:34.216Z,97285.77
2019-02-20T16:29:12.347Z,97290.97
2019-02-20T16:29:50.578Z,97288.37
2019-02-20T16:30:27.875Z,97288.37
2019-02-20T16:31:05.545Z,97289.31
2019-02-20T16:31:42.885Z,97294.87
2019-02-20T16:32:20.194Z,97289.31
2019-02-20T16:32:57.522Z,97291.91
2019-02-20T16:33:34.829Z,97292.84
2019-02-20T16:34:12.199Z,97293.67
2019-02-20T16:34:49.516Z,97290.30
2019-02-20T16:35:26.830Z,97293.30
2019-02-20T16:36:04.257Z,97289.94
2019-02-20T16:36:41.628Z,97291.23
2019-02-20T16:37:18.970Z,97291.70
2019-02-20T16:38:00.093Z,97294.77
2019-02-20T16:38:37.399Z,97290.53
2019-02-20T16:39:14.727Z,97288.03
2019-02-20T16:39:52.071Z,97289.80
2019-02-20T16:40:29.418Z,97292.86
2019-02-20T16:41:06.734Z,97291.19
2019-02-20T16:41:44.096Z,97296.39
2019-02-20T16:42:21.456Z,97283.86
2019-02-20T16:42:58.779Z,97290.36
2019-02-20T16:43:36.081Z,97290.83
2019-02-20T16:44:13.427Z,97291.29
2019-02-20T16:44:51.035Z,97290.45
2019-02-20T16:45:28.437Z,97290.92
2019-02-20T16:46:05.763Z,97293.52
2019-02-20T16:46:43.089Z,97291.02
2019-02-20T16:47:20.415Z,97292.78
2019-02-20T16:47:57.760Z,97291.02
2019-02-20T16:48:36.495Z,97288.52
2019-02-20T16:49:13.818Z,97289.72
2019-02-20T16:49:51.177Z,97291.95
2019-02-20T16:50:28.548Z,97292.78
2019-02-20T16:51:05.873Z,97297.14
2019-02-20T16:51:44.818Z,97295.37
2019-02-20T16:52:22.113Z,97292.41
2019-02-20T16:52:59.608Z,97291.48
2019-02-20T16:53:36.906Z,97294.64
2019-02-20T16:54:14.238Z,97293.81
2019-02-20T16:54:51.540Z,97296.77
2019-02-20T16:55:28.854Z,97296.31
2019-02-20T16:56:06.171Z,97297.61
2019-02-20T16:56:58.009Z,97300.20
2019-02-20T16:57:35.937Z,97296.77
2019-02-20T16:58:46.521Z,97295.99
2019-02-20T16:59:23.834Z,97301.66
2019-02-20T17:00:21.321Z,97297.81
2019-02-20T17:00:58.979Z,97305.74
2019-02-20T17:01:36.307Z,97298.98
2019-02-20T17:02:14.398Z,97303.34
2019-02-20T17:02:51.784Z,97302.87
2019-02-20T17:03:29.089Z,97309.27
2019-02-20T17:04:07.270Z,97309.17
2019-02-20T17:04:44.604Z,97307.41
2019-02-20T17:05:22.082Z,97305.19
2019-02-20T17:05:59.415Z,97305.06
2019-02-20T17:06:46.700Z,97309.33
2019-02-20T17:07:23.981Z,97305.80
2019-02-20T17:08:01.417Z,97307.05
2019-02-20T17:08:38.747Z,97306.21
2019-02-20T17:09:16.055Z,97310.94
2019-02-20T17:09:53.352Z,97315.30
2019-02-20T17:10:31.689Z,97316.59
2019-02-20T17:11:09.023Z,97314.47
2019-02-20T17:11:46.334Z,97315.77
2019-02-20T17:12:23.643Z,97315.77
2019-02-20T17:13:01.090Z,97322.72
2019-02-20T17:13:39.606Z,97320.13
2019-02-20T17:14:32.776Z,97320.22
2019-02-20T17:15:12.513Z,97319.84
2019-02-20T17:15:49.923Z,97321.18
2019-02-20T17:16:27.303Z,97323.59
2019-02-20T17:17:05.091Z,97315.44
2019-02-20T17:17:43.040Z,97317.20
2019-02-20T17:18:20.537Z,97322.85
2019-02-20T17:18:59.841Z,97318.59
2019-02-20T17:19:37.214Z,97319.80
2019-02-20T17:20:17.911Z,97319.80
2019-02-20T17:20:55.333Z,97321.09
2019-02-20T17:22:03.710Z,97322.02
2019-02-20T17:22:40.982Z,97323.69
2019-02-20T17:23:18.334Z,97324.00
2019-02-20T17:23:55.663Z,97321.50
2019-02-20T17:24:33.472Z,97330.58
2019-02-20T17:25:12.430Z,97326.22
2019-02-20T17:25:51.842Z,97330.11
2019-02-20T17:26:29.147Z,97330.95
2019-02-20T17:27:11.034Z,97326.13
2019-02-20T17:27:48.338Z,97330.02
2019-02-20T17:28:25.657Z,97335.21
2019-02-20T17:29:03.035Z,97332.16
2019-02-20T17:29:40.420Z,97329.09
2019-02-20T17:30:18.090Z,97329.47
2019-02-20T17:30:55.703Z,97335.03
2019-02-20T17:31:33.044Z,97332.44
2019-02-20T17:32:10.357Z,97335.03
2019-02-20T17:32:48.239Z,97333.73
2019-02-20T17:33:25.726Z,97328.08
2019-02-20T17:34:03.098Z,97334.56
2019-02-20T17:34:40.393Z,97334.94
2019-02-20T17:35:19.780Z,97337.06
2019-02-20T17:35:57.097Z,97333.64
2019-02-20T17:36:34.414Z,97337.16
2019-02-20T17:37:11.709Z,97336.33
2019-02-20T17:37:49.291Z,97336.33
2019-02-20T17:38:27.666Z,97337.16
2019-02-20T17:39:07.327Z,97336.33
2019-02-20T17:39:46.339Z,97337.16
2019-02-20T17:40:23.652Z,97333.45
2019-02-20T17:41:00.981Z,97336.42
2019-02-20T17:41:38.378Z,97338.18
2019-02-20T17:42:15.687Z,97336.05
2019-02-20T17:42:53.015Z,97335.21
2019-02-20T17:43:30.298Z,97335.67
2019-02-20T17:44:07.680Z,97338.27
2019-02-20T17:44:45.371Z,97339.20
2019-02-20T17:45:22.693Z,97340.50
2019-02-20T17:46:00.099Z,97335.77
2019-02-20T17:46:37.392Z,97339.29
2019-02-20T17:47:15.316Z,97338.09
2019-02-20T17:47:52.613Z,97338.09
2019-02-20T17:48:29.929Z,97345.41
2019-02-20T17:49:07.234Z,97345.03
2019-02-20T17:49:44.560Z,97344.29
2019-02-20T17:50:21.888Z,97346.42
2019-02-20T17:50:59.184Z,97346.09
2019-02-20T17:51:42.180Z,97341.36
2019-02-20T17:52:19.478Z,97342.75
2019-02-20T17:52:59.924Z,97342.00
2019-02-20T17:53:37.218Z,97347.19
2019-02-20T17:54:14.578Z,97348.21
2019-02-20T17:54:51.950Z,97344.88
2019-02-20T17:55:29.303Z,97342.28
2019-02-20T17:56:06.703Z,97347.93
2019-02-20T17:56:45.095Z,97347.55
2019-02-20T17:57:23.744Z,97349.78
2019-02-20T17:58:01.219Z,97351.54
2019-02-20T17:58:38.530Z,97352.50
2019-02-20T17:59:16.849Z,97354.26
2019-02-20T17:59:54.142Z,97350.83
2019-02-20T18:00:31.855Z,97349.99
2019-02-20T18:01:18.638Z,97355.19
2019-02-20T18:01:58.468Z,97358.70
2019-02-20T18:02:35.820Z,97354.16
2019-02-20T18:03:13.154Z,97358.97
2019-02-20T18:03:50.486Z,97356.84
2019-02-20T18:04:27.770Z,97357.77
2019-02-20T18:05:05.740Z,97363.33
2019-02-20T18:05:43.072Z,97359.06
2019-02-20T18:06:20.433Z,97359.90
2019-02-20T18:06:57.737Z,97356.09
2019-02-20T18:07:35.062Z,97358.69
2019-02-20T18:08:12.375Z,97363.05
2019-02-20T18:08:49.698Z,97358.31
2019-02-20T18:09:27.011Z,97360.54
2019-02-20T18:10:04.846Z,97356.65
2019-02-20T18:10:42.131Z,97363.72
2019-02-20T18:11:19.494Z,97355.56
2019-02-20T18:11:56.879Z,97361.59
2019-02-20T18:12:34.184Z,97358.62
2019-02-20T18:13:11.531Z,97361.64
2019-02-20T18:13:48.861Z,97358.67
2019-02-20T18:14:26.196Z,97362.56
2019-02-20T18:15:03.518Z,97359.59
2019-02-20T18:15:41.019Z,97363.95
2019-02-20T18:16:18.442Z,97364.79
2019-02-20T18:16:55.773Z,97370.90
2019-02-20T18:17:34.188Z,97365.71
2019-02-20T18:18:11.504Z,97363.20
2019-02-20T18:18:52.950Z,97369.69
2019-02-20T18:19:30.243Z,97368.86
2019-02-20T18:20:08.335Z,97365.05
2019-02-20T18:20:45.720Z,97364.31
2019-02-20T18:21:23.140Z,97363.50
2019-02-20T18:22:00.540Z,97373.05
2019-02-20T18:22:38.038Z,97366.19
2019-02-20T18:23:15.372Z,97361.84
2019-02-20T18:23:52.670Z,97365.35
2019-02-20T18:24:31.087Z,97360.25
2019-02-20T18:25:09.918Z,97367.20
2019-02-20T18:25:47.514Z,97362.84
2019-02-20T18:26:24.841Z,97367.75
2019-02-20T18:27:02.197Z,97363.95
2019-02-20T18:27:39.591Z,97367.84
2019-02-20T18:28:24.114Z,97366.17
2019-02-20T18:28:55.948Z,97370.06
2019-02-20T18:29:33.275Z,97368.84
2019-02-20T18:30:11.162Z,97369.31
2019-02-20T18:30:50.378Z,97372.36
2019-02-20T18:31:27.663Z,97375.42
2019-02-20T18:32:05.017Z,97374.24
2019-02-20T18:32:42.539Z,97373.03
2019-02-20T18:33:19.875Z,97376.92
2019-02-20T18:33:57.290Z,97377.84
2019-02-20T18:34:34.595Z,97376.55
2019-02-20T18:35:12.295Z,97374.88
2019-02-20T18:35:49.601Z,97374.42
2019-02-20T18:36:26.935Z,97372.75
2019-02-20T18:37:04.239Z,97373.67
2019-02-20T18:37:41.614Z,97374.13
2019-02-20T18:38:18.971Z,97372.00
2019-02-20T18:38:56.320Z,97373.30
2019-02-20T18:39:33.609Z,97374.97
2019-02-20T18:40:11.834Z,97377.56
2019-02-20T18:40:49.160Z,97378.02
2019-02-20T18:41:26.500Z,97370.79
2019-02-20T18:42:03.840Z,97369.95
2019-02-20T18:42:41.216Z,97373.38
2019-02-20T18:43:18.553Z,97377.73
2019-02-20T18:43:55.935Z,97371.80
2019-02-20T18:44:33.268Z,97373.09
2019-02-20T18:45:11.967Z,97377.82
2019-02-20T18:45:49.342Z,97375.69
2019-02-20T18:46:26.704Z,97376.15
2019-02-20T18:47:03.994Z,97379.20
2019-02-20T18:47:41.427Z,97379.20
2019-02-20T18:48:18.735Z,97378.03
2019-02-20T18:48:56.075Z,97378.86
2019-02-20T18:49:33.399Z,97381.91
2019-02-20T18:50:12.045Z,97379.78
2019-02-20T18:50:49.366Z,97379.32
2019-02-20T18:51:26.662Z,97379.78
2019-02-20T18:52:04.023Z,97380.70
2019-02-20T18:52:41.340Z,97382.46
2019-02-20T18:53:18.668Z,97385.05
2019-02-20T18:53:56.006Z,97385.05
2019-02-20T18:54:33.333Z,97384.22
2019-02-20T18:55:12.389Z,97387.73
2019-02-20T18:55:49.730Z,97382.55
2019-02-20T18:56:30.419Z,97385.23
2019-02-20T18:57:07.726Z,97390.41
2019-02-20T18:57:45.068Z,97388.83
2019-02-20T18:58:22.357Z,97386.32
2019-02-20T18:58:59.701Z,97387.24
2019-02-20T18:59:36.995Z,97382.52
2019-02-20T19:00:16.701Z,97394.64
2019-02-20T19:00:54.197Z,97385.69
2019-02-20T19:01:34.913Z,97391.71
2019-02-20T19:02:12.338Z,97386.61
2019-02-20T19:02:49.866Z,97391.50
2019-02-20T19:03:27.221Z,97390.67
2019-02-20T19:04:04.628Z,97389.00
2019-02-20T19:04:42.094Z,97389.00
2019-02-20T19:05:19.785Z,97390.75
2019-02-20T19:05:57.415Z,97393.44
2019-02-20T19:06:38.220Z,97401.20
2019-02-20T19:07:15.986Z,97390.00
2019-02-20T19:07:54.501Z,97396.57
2019-02-20T19:08:58.145Z,97397.11
2019-02-20T19:09:35.416Z,97400.66
2019-02-20T19:10:18.556Z,97399.33
2019-02-20T19:11:03.763Z,97398.87
2019-02-20T19:12:06.416Z,97402.00
2019-02-20T19:13:11.900Z,97400.79
2019-02-20T19:14:47.044Z,97403.66
2019-02-20T19:15:35.406Z,97397.98
2019-02-20T19:17:34.204Z,97406.23
2019-02-20T19:19:01.741Z,97406.44
2019-02-20T19:20:33.811Z,97405.74
2019-02-20T19:22:14.764Z,97407.39
2019-02-20T19:23:52.269Z,97407.98
2019-02-20T19:25:41.810Z,97405.23
2019-02-20T19:27:15.561Z,97412.02
2019-02-20T19:28:17.991Z,97409.77
2019-02-20T19:30:04.987Z,97412.52
2019-02-20T19:31:29.457Z,97412.59
2019-02-20T19:33:12.574Z,97407.45
2019-02-20T19:35:12.867Z,97414.77
2019-02-20T19:37:18.844Z,97418.83
2019-02-20T19:38:34.131Z,97421.60
2019-02-20T19:39:36.049Z,97418.88
2019-02-20T19:41:21.864Z,97417.97
2019-02-20T19:43:27.433Z,97418.66
2019-02-20T19:44:42.790Z,97422.45
2019-02-20T19:46:33.971Z,97426.35
2019-02-20T19:48:05.759Z,97428.94
2019-02-20T19:49:42.362Z,97431.84
2019-02-20T19:51:09.945Z,97425.00
2019-02-20T19:52:16.745Z,97436.25
2019-02-20T19:53:50.361Z,97435.72
2019-02-20T19:54:56.267Z,97440.25
2019-02-20T19:56:26.913Z,97431.06
2019-02-20T19:58:15.077Z,97436.39
2019-02-20T19:59:58.868Z,97433.25
2019-02-20T20:01:32.254Z,97434.48
2019-02-20T20:03:03.612Z,97432.41
2019-02-20T20:04:33.551Z,97437.80
2019-02-20T20:05:37.527Z,97440.14
2019-02-20T20:07:14.800Z,97441.92
2019-02-20T20:08:49.267Z,97441.81
2019-02-20T20:10:28.094Z,97437.80
2019-02-20T20:12:19.267Z,97437.20
2019-02-20T20:13:42.369Z,97438.18
2019-02-20T20:15:25.719Z,97440.25
2019-02-20T20:17:06.779Z,97438.58
2019-02-20T20:19:04.108Z,97437.50
2019-02-20T20:20:04.456Z,97431.25
2019-02-20T20:21:29.255Z,97433.31
2019-02-20T20:23:08.685Z,97434.54
2019-02-20T20:24:36.421Z,97434.54
2019-02-20T20:25:50.989Z,97434.23
2019-02-20T20:27:25.317Z,97439.01
2019-02-20T20:28:31.392Z,97441.66
2019-02-20T20:30:07.486Z,97443.48
2019-02-20T20:31:43.030Z,97443.16
2019-02-20T20:32:56.149Z,97445.67
2019-02-20T20:34:24.710Z,97441.31
2019-02-20T20:35:43.722Z,97443.89
2019-02-20T20:36:45.743Z,97448.84
2019-02-20T20:37:48.921Z,97449.29
2019-02-20T20:39:11.661Z,97450.45
2019-02-20T20:41:04.521Z,97442.14
2019-02-20T20:43:09.093Z,97443.89
2019-02-20T20:44:34.138Z,97452.33
2019-02-20T20:45:54.697Z,97452.53
2019-02-20T20:47:06.094Z,97452.46
2019-02-20T20:48:33.581Z,97452.39
2019-02-20T20:49:51.931Z,97443.67
2019-02-20T20:51:27.788Z,97453.09
2019-02-20T20:53:15.436Z,97457.25
2019-02-20T20:54:40.446Z,97454.22
2019-02-20T20:56:02.421Z,97453.16
2019-02-20T20:57:43.597Z,97458.45
2019-02-20T20:59:31.571Z,97454.20
2019-02-20T21:00:27.022Z,97453.61
2019-02-20T21:02:00.782Z,97457.23
2019-02-20T21:02:52.166Z,97455.41
2019-02-20T21:03:29.496Z,97453.80
2019-02-20T21:04:59.835Z,97452.84
2019-02-20T21:07:07.600Z,97450.86
2019-02-20T21:08:35.634Z,97453.67
2019-02-20T21:09:46.717Z,97457.80
2019-02-20T21:11:14.061Z,97458.06
2019-02-20T21:12:58.234Z,97455.26
2019-02-20T21:14:30.262Z,97458.94
2019-02-20T21:16:00.023Z,97456.56
2019-02-20T21:17:04.052Z,97453.69
2019-02-20T21:18:22.107Z,97458.46
2019-02-20T21:19:53.535Z,97457.46
2019-02-20T21:21:23.803Z,97459.69
2019-02-20T21:22:38.303Z,97460.78
2019-02-20T21:24:15.808Z,97462.91
2019-02-20T21:25:55.631Z,97461.95
2019-02-20T21:27:59.417Z,97452.21
2019-02-20T21:29:14.896Z,97455.37
2019-02-20T21:30:52.382Z,97457.53
2019-02-20T21:32:12.685Z,97459.27
2019-02-20T21:33:46.020Z,97456.89
2019-02-20T21:35:12.866Z,97462.14
2019-02-20T21:36:16.984Z,97456.17
2019-02-20T21:37:50.046Z,97459.66
2019-02-20T21:39:21.084Z,97460.88
2019-02-20T21:40:18.673Z,97457.27
2019-02-20T21:42:12.887Z,97462.09
2019-02-20T21:43:43.940Z,97456.88
2019-02-20T21:45:09.695Z,97460.25
2019-02-20T21:47:04.781Z,97463.80
2019-02-20T21:48:45.849Z,97463.98
2019-02-20T21:50:25.197Z,97466.78
2019-02-20T21:51:49.061Z,97462.20
2019-02-20T21:53:39.912Z,97470.89
2019-02-20T21:54:50.737Z,97469.54
2019-02-20T21:56:33.324Z,97470.59
2019-02-20T21:58:10.729Z,97471.28
2019-02-20T22:02:36.953Z,97468.31
2019-02-20T22:03:50.467Z,97476.10
2019-02-20T22:05:24.227Z,97472.05
2019-02-20T22:08:50.933Z,97476.43
2019-02-20T22:10:25.575Z,97469.28
2019-02-20T22:11:53.132Z,97473.54
2019-02-20T22:13:43.436Z,97470.75